createdAt,value
2018-12-24T00:00:04.183Z,86.08
2018-12-24T00:02:31.679Z,87.04
2018-12-24T00:04:59.123Z,85.94
2018-12-24T00:07:26.620Z,85.90
2018-12-24T00:09:54.038Z,86.23
2018-12-24T00:12:21.474Z,85.69
2018-12-24T00:14:48.919Z,85.06
2018-12-24T00:17:16.346Z,86.06
2018-12-24T00:19:43.792Z,86.27
2018-12-24T00:22:11.199Z,86.53
2018-12-24T00:24:38.709Z,87.54
2018-12-24T00:27:06.709Z,87.83
2018-12-24T00:29:34.173Z,87.57
2018-12-24T00:32:01.580Z,87.76
2018-12-24T00:34:29.031Z,87.11
2018-12-24T00:36:56.452Z,87.97
2018-12-24T00:39:23.893Z,87.59
2018-12-24T00:41:51.340Z,86.41
2018-12-24T00:44:18.766Z,86.67
2018-12-24T00:46:46.227Z,86.87
2018-12-24T00:49:13.661Z,86.94
2018-12-24T00:51:41.111Z,88.35
2018-12-24T00:54:08.537Z,87.80
2018-12-24T00:56:35.981Z,87.50
2018-12-24T00:59:03.474Z,88.64
2018-12-24T01:01:30.919Z,88.20
2018-12-24T01:03:58.362Z,88.38
2018-12-24T01:06:25.822Z,88.94
2018-12-24T01:08:53.236Z,89.05
2018-12-24T01:11:20.692Z,88.86
2018-12-24T01:13:48.168Z,88.18
2018-12-24T01:16:15.603Z,88.44
2018-12-24T01:18:43.048Z,89.97
2018-12-24T01:21:10.519Z,88.86
2018-12-24T01:23:39.230Z,89.62
2018-12-24T01:26:06.731Z,89.49
2018-12-24T01:28:34.176Z,89.11
2018-12-24T01:31:01.597Z,90.54
2018-12-24T01:33:29.019Z,90.20
2018-12-24T01:35:56.509Z,89.56
2018-12-24T01:38:23.930Z,89.18
2018-12-24T01:40:51.362Z,90.76
2018-12-24T01:43:18.777Z,91.11
2018-12-24T01:45:46.219Z,91.39
2018-12-24T01:48:13.652Z,90.98
2018-12-24T01:50:41.121Z,91.36
2018-12-24T01:53:08.543Z,91.40
2018-12-24T01:55:36.015Z,91.92
2018-12-24T01:58:03.467Z,91.42
2018-12-24T02:00:30.892Z,91.29
2018-12-24T02:02:58.344Z,91.87
2018-12-24T02:05:25.768Z,91.88
2018-12-24T02:07:53.192Z,92.15
2018-12-24T02:10:20.628Z,91.88
2018-12-24T02:12:48.081Z,91.63
2018-12-24T02:15:15.528Z,90.86
2018-12-24T02:17:43.008Z,90.99
2018-12-24T02:20:10.470Z,90.73
2018-12-24T02:22:38.034Z,92.08
2018-12-24T02:25:06.618Z,91.68
2018-12-24T02:27:34.377Z,91.45
2018-12-24T02:30:01.891Z,91.96
2018-12-24T02:32:29.370Z,91.68
2018-12-24T02:34:56.834Z,91.09
2018-12-24T02:37:24.272Z,90.97
2018-12-24T02:39:51.785Z,91.00
2018-12-24T02:42:22.065Z,91.94
2018-12-24T02:44:49.624Z,91.43
2018-12-24T02:47:17.191Z,91.75
2018-12-24T02:49:44.920Z,91.96
2018-12-24T02:52:12.428Z,91.41
2018-12-24T02:54:39.903Z,90.99
2018-12-24T02:57:07.359Z,90.97
2018-12-24T02:59:35.032Z,91.49
2018-12-24T03:02:02.468Z,91.11
2018-12-24T03:04:30.012Z,90.97
2018-12-24T03:06:57.440Z,90.90
2018-12-24T03:09:24.893Z,91.20
2018-12-24T03:11:52.375Z,90.80
2018-12-24T03:14:19.814Z,90.75
2018-12-24T03:16:47.297Z,90.94
2018-12-24T03:19:14.801Z,90.60
2018-12-24T03:21:42.276Z,90.89
2018-12-24T03:24:09.749Z,91.75
2018-12-24T03:26:38.164Z,90.78
2018-12-24T03:29:05.649Z,90.76
2018-12-24T03:31:33.165Z,90.72
2018-12-24T03:34:00.625Z,91.41
2018-12-24T03:36:28.109Z,91.78
2018-12-24T03:38:55.621Z,91.14
2018-12-24T03:41:23.072Z,91.76
2018-12-24T03:43:50.542Z,91.52
2018-12-24T03:46:18.035Z,92.12
2018-12-24T03:48:45.479Z,92.75
2018-12-24T03:51:13.018Z,92.21
2018-12-24T03:53:40.464Z,91.54
2018-12-24T03:56:07.914Z,91.76
2018-12-24T03:58:35.344Z,91.76
2018-12-24T04:01:02.806Z,91.91
2018-12-24T04:03:30.241Z,91.12
2018-12-24T04:05:57.911Z,91.67
2018-12-24T04:08:25.432Z,91.99
2018-12-24T04:10:53.033Z,92.59
2018-12-24T04:13:22.551Z,92.21
2018-12-24T04:15:48.211Z,93.05
2018-12-24T04:18:15.680Z,93.57
2018-12-24T04:20:43.313Z,93.10
2018-12-24T04:23:11.040Z,91.88
2018-12-24T04:25:38.483Z,91.04
2018-12-24T04:28:06.144Z,91.06
2018-12-24T04:30:33.808Z,91.38
2018-12-24T04:33:01.396Z,92.14
2018-12-24T04:35:28.955Z,91.68
2018-12-24T04:37:56.442Z,91.83
2018-12-24T04:40:23.934Z,91.68
2018-12-24T04:42:51.392Z,92.14
2018-12-24T04:45:20.840Z,92.37
2018-12-24T04:47:48.467Z,92.54
2018-12-24T04:50:15.922Z,92.87
2018-12-24T04:52:43.532Z,91.78
2018-12-24T04:55:11.089Z,91.29
2018-12-24T04:57:38.858Z,90.99
2018-12-24T05:00:06.494Z,90.77
2018-12-24T05:02:33.944Z,90.45
2018-12-24T05:05:01.389Z,90.48
2018-12-24T05:07:28.836Z,91.90
2018-12-24T05:09:56.294Z,92.32
2018-12-24T05:12:23.735Z,92.03
2018-12-24T05:14:51.197Z,92.42
2018-12-24T05:17:18.609Z,92.24
2018-12-24T05:19:46.097Z,92.25
2018-12-24T05:22:13.591Z,91.61
2018-12-24T05:24:41.011Z,91.25
2018-12-24T05:27:08.458Z,91.23
2018-12-24T05:29:35.894Z,90.91
2018-12-24T05:32:03.351Z,90.55
2018-12-24T05:34:30.807Z,90.86
2018-12-24T05:36:58.277Z,90.79
2018-12-24T05:39:25.714Z,91.87
2018-12-24T05:41:53.194Z,91.48
2018-12-24T05:44:20.638Z,91.12
2018-12-24T05:46:48.108Z,91.31
2018-12-24T05:49:15.545Z,91.29
2018-12-24T05:51:43.005Z,91.85
2018-12-24T05:54:10.453Z,91.35
2018-12-24T05:56:37.915Z,90.89
2018-12-24T05:59:05.366Z,90.64
2018-12-24T06:01:32.809Z,90.71
2018-12-24T06:04:00.266Z,90.09
2018-12-24T06:06:27.723Z,90.22
2018-12-24T06:08:55.150Z,89.95
2018-12-24T06:11:22.586Z,90.62
2018-12-24T06:13:57.776Z,90.43
2018-12-24T06:16:17.481Z,89.86
2018-12-24T06:18:44.915Z,90.16
2018-12-24T06:21:12.377Z,90.53
2018-12-24T06:23:39.835Z,90.10
2018-12-24T06:26:07.275Z,90.38
2018-12-24T06:28:34.734Z,90.85
2018-12-24T06:31:02.159Z,90.74
2018-12-24T06:33:29.606Z,90.55
2018-12-24T06:35:57.068Z,90.14
2018-12-24T06:38:24.503Z,89.60
2018-12-24T06:40:51.968Z,89.17
2018-12-24T06:43:19.409Z,89.45
2018-12-24T06:45:46.839Z,90.26
2018-12-24T06:48:14.315Z,89.99
2018-12-24T06:50:41.767Z,89.66
2018-12-24T06:53:09.206Z,90.34
2018-12-24T06:55:36.634Z,90.47
2018-12-24T06:58:04.063Z,90.14
2018-12-24T07:00:31.503Z,90.66
2018-12-24T07:02:58.954Z,90.04
2018-12-24T07:05:26.414Z,89.15
2018-12-24T07:07:53.873Z,89.52
2018-12-24T07:10:21.314Z,89.81
2018-12-24T07:12:48.780Z,89.81
2018-12-24T07:15:16.214Z,89.75
2018-12-24T07:17:43.662Z,90.09
2018-12-24T07:20:11.160Z,90.07
2018-12-24T07:22:38.653Z,89.67
2018-12-24T07:25:06.923Z,89.02
2018-12-24T07:27:34.399Z,88.89
2018-12-24T07:30:01.959Z,89.77
2018-12-24T07:32:29.421Z,89.11
2018-12-24T07:34:56.874Z,87.81
2018-12-24T07:37:25.411Z,88.02
2018-12-24T07:39:52.968Z,85.96
2018-12-24T07:42:20.306Z,86.05
2018-12-24T07:44:47.784Z,84.46
2018-12-24T07:47:15.283Z,84.36
2018-12-24T07:49:43.840Z,84.26
2018-12-24T07:52:11.320Z,83.75
2018-12-24T07:54:38.948Z,83.36
2018-12-24T07:57:07.041Z,82.89
2018-12-24T07:59:35.066Z,85.62
2018-12-24T08:02:02.670Z,83.23
2018-12-24T08:04:30.135Z,82.66
2018-12-24T08:06:57.598Z,82.08
2018-12-24T08:09:25.169Z,82.13
2018-12-24T08:11:52.546Z,81.15
2018-12-24T08:14:19.996Z,81.79
2018-12-24T08:16:47.442Z,77.62
2018-12-24T08:19:14.950Z,79.14
2018-12-24T08:21:42.370Z,79.78
2018-12-24T08:24:09.811Z,79.81
2018-12-24T08:26:38.183Z,78.74
2018-12-24T08:29:05.671Z,79.79
2018-12-24T08:31:33.117Z,79.00
2018-12-24T08:34:00.587Z,79.43
2018-12-24T08:36:28.034Z,79.07
2018-12-24T08:38:55.463Z,78.13
2018-12-24T08:41:25.327Z,76.92
2018-12-24T08:43:52.879Z,77.03
2018-12-24T08:46:20.361Z,78.51
2018-12-24T08:48:47.813Z,77.99
2018-12-24T08:51:15.299Z,78.58
2018-12-24T08:53:42.738Z,78.62
2018-12-24T08:56:10.239Z,78.89
2018-12-24T08:58:37.659Z,79.07
2018-12-24T09:01:05.102Z,76.91
2018-12-24T09:03:32.526Z,78.07
2018-12-24T09:06:00.054Z,77.00
2018-12-24T09:08:27.559Z,77.51
2018-12-24T09:10:55.019Z,77.90
2018-12-24T09:13:22.477Z,76.91
2018-12-24T09:15:50.108Z,77.57
2018-12-24T09:18:17.554Z,78.26
2018-12-24T09:20:52.451Z,78.19
2018-12-24T09:23:12.493Z,78.39
2018-12-24T09:25:39.961Z,78.15
2018-12-24T09:28:07.380Z,77.48
2018-12-24T09:30:35.775Z,78.23
2018-12-24T09:33:03.280Z,77.71
2018-12-24T09:35:30.742Z,74.73
2018-12-24T09:37:58.185Z,77.00
2018-12-24T09:40:25.646Z,74.83
2018-12-24T09:42:53.129Z,74.78
2018-12-24T09:45:20.567Z,73.08
2018-12-24T09:47:48.002Z,74.99
2018-12-24T09:50:15.570Z,73.79
2018-12-24T09:52:43.007Z,74.26
2018-12-24T09:55:10.421Z,73.32
2018-12-24T09:57:37.896Z,74.37
2018-12-24T10:00:05.399Z,74.80
2018-12-24T10:02:32.868Z,73.42
2018-12-24T10:05:00.300Z,72.84
2018-12-24T10:07:34.301Z,73.72
2018-12-24T10:10:01.721Z,74.33
2018-12-24T10:12:29.183Z,74.37
2018-12-24T10:14:56.624Z,73.83
2018-12-24T10:17:24.058Z,73.26
2018-12-24T10:19:51.507Z,74.55
2018-12-24T10:22:18.952Z,72.96
2018-12-24T10:24:46.439Z,73.74
2018-12-24T10:27:13.863Z,72.64
2018-12-24T10:29:41.335Z,75.13
2018-12-24T10:32:08.822Z,74.06
2018-12-24T10:34:36.362Z,73.71
2018-12-24T10:37:03.799Z,73.31
2018-12-24T10:39:31.239Z,73.77
2018-12-24T10:41:58.671Z,74.43
2018-12-24T10:44:26.109Z,71.70
2018-12-24T10:46:53.552Z,73.54
2018-12-24T10:49:20.994Z,73.17
2018-12-24T10:51:48.470Z,73.44
2018-12-24T10:54:16.271Z,72.69
2018-12-24T10:56:43.703Z,72.92
2018-12-24T10:59:11.157Z,73.41
2018-12-24T11:01:38.601Z,72.95
2018-12-24T11:04:06.110Z,73.76
2018-12-24T11:06:34.505Z,73.27
2018-12-24T11:09:02.041Z,71.79
2018-12-24T11:11:29.484Z,73.05
2018-12-24T11:13:56.941Z,72.44
2018-12-24T11:16:24.451Z,73.24
2018-12-24T11:18:51.904Z,73.14
2018-12-24T11:21:19.379Z,72.67
2018-12-24T11:23:46.802Z,72.99
2018-12-24T11:26:14.298Z,71.78
2018-12-24T11:28:42.655Z,71.35
2018-12-24T11:31:10.187Z,72.39
2018-12-24T11:33:37.609Z,72.72
2018-12-24T11:36:05.054Z,73.41
2018-12-24T11:38:32.554Z,72.74
2018-12-24T11:41:00.038Z,72.10
2018-12-24T11:43:27.571Z,72.65
2018-12-24T11:45:55.007Z,71.59
2018-12-24T11:48:22.518Z,71.38
2018-12-24T11:50:49.941Z,71.82
2018-12-24T11:53:17.364Z,69.83
2018-12-24T11:55:44.803Z,71.96
2018-12-24T11:58:14.038Z,72.53
2018-12-24T12:00:41.526Z,72.14
2018-12-24T12:03:08.967Z,71.64
2018-12-24T12:05:36.391Z,70.33
2018-12-24T12:08:03.856Z,71.91
2018-12-24T12:10:31.296Z,71.82
2018-12-24T12:12:58.739Z,71.77
2018-12-24T12:15:26.174Z,71.14
2018-12-24T12:17:53.649Z,71.61
2018-12-24T12:20:22.836Z,71.74
2018-12-24T12:22:48.595Z,70.04
2018-12-24T12:25:17.570Z,72.18
2018-12-24T12:27:45.111Z,70.89
2018-12-24T12:30:12.546Z,70.92
2018-12-24T12:32:40.025Z,70.71
2018-12-24T12:35:07.494Z,71.07
2018-12-24T12:37:34.945Z,70.47
2018-12-24T12:40:02.509Z,70.84
2018-12-24T12:42:30.090Z,71.06
2018-12-24T12:44:57.523Z,71.56
2018-12-24T12:47:24.968Z,71.65
2018-12-24T12:49:52.428Z,70.77
2018-12-24T12:52:20.760Z,70.71
2018-12-24T12:54:48.297Z,71.79
2018-12-24T12:57:15.763Z,71.20
2018-12-24T12:59:43.197Z,69.97
2018-12-24T13:02:10.692Z,70.18
2018-12-24T13:04:38.126Z,70.36
2018-12-24T13:07:05.549Z,71.07
2018-12-24T13:09:33.006Z,70.07
2018-12-24T13:12:00.442Z,69.99
2018-12-24T13:14:27.879Z,70.95
2018-12-24T13:16:55.334Z,71.02
2018-12-24T13:19:22.781Z,71.29
2018-12-24T13:21:50.227Z,70.40
2018-12-24T13:24:17.695Z,70.54
2018-12-24T13:26:45.165Z,70.12
2018-12-24T13:29:13.203Z,70.66
2018-12-24T13:31:40.813Z,70.19
2018-12-24T13:34:08.254Z,69.90
2018-12-24T13:36:35.692Z,70.11
2018-12-24T13:39:03.117Z,69.29
2018-12-24T13:41:30.572Z,69.48
2018-12-24T13:43:58.049Z,69.53
2018-12-24T13:46:25.517Z,69.24
2018-12-24T13:48:52.952Z,69.09
2018-12-24T13:51:20.439Z,69.54
2018-12-24T13:53:47.878Z,69.85
2018-12-24T13:56:15.328Z,69.39
2018-12-24T13:58:42.810Z,69.30
2018-12-24T14:01:10.259Z,69.14
2018-12-24T14:03:38.397Z,70.57
2018-12-24T14:06:05.861Z,68.94
2018-12-24T14:08:33.298Z,69.11
2018-12-24T14:11:00.734Z,69.44
2018-12-24T14:13:28.179Z,68.87
2018-12-24T14:15:55.591Z,69.08
2018-12-24T14:18:23.054Z,68.41
2018-12-24T14:20:50.476Z,68.55
2018-12-24T14:23:17.931Z,69.06
2018-12-24T14:25:45.394Z,69.28
2018-12-24T14:28:12.843Z,68.78
2018-12-24T14:30:40.268Z,67.78
2018-12-24T14:33:07.705Z,68.48
2018-12-24T14:35:35.149Z,68.95
2018-12-24T14:38:02.611Z,68.70
2018-12-24T14:40:30.050Z,69.01
2018-12-24T14:42:57.476Z,69.98
2018-12-24T14:45:24.904Z,70.52
2018-12-24T14:47:53.321Z,69.95
2018-12-24T14:50:20.828Z,69.64
2018-12-24T14:52:48.267Z,69.72
2018-12-24T14:55:15.748Z,68.52
2018-12-24T14:57:43.260Z,68.78
2018-12-24T15:00:10.755Z,68.27
2018-12-24T15:02:38.194Z,67.93
2018-12-24T15:05:05.629Z,68.49
2018-12-24T15:07:33.066Z,68.06
2018-12-24T15:10:00.528Z,67.88
2018-12-24T15:12:28.017Z,68.65
2018-12-24T15:14:55.484Z,69.19
2018-12-24T15:17:22.935Z,68.64
2018-12-24T15:19:50.440Z,69.07
2018-12-24T15:22:17.910Z,68.91
2018-12-24T15:24:45.986Z,68.79
2018-12-24T15:27:13.500Z,68.35
2018-12-24T15:29:41.026Z,68.47
2018-12-24T15:32:08.516Z,67.82
2018-12-24T15:34:36.007Z,68.66
2018-12-24T15:37:03.439Z,69.15
2018-12-24T15:39:30.957Z,69.01
2018-12-24T15:41:58.364Z,68.28
2018-12-24T15:44:25.825Z,68.02
2018-12-24T15:46:53.310Z,68.29
2018-12-24T15:49:20.745Z,68.24
2018-12-24T15:51:48.218Z,67.98
2018-12-24T15:54:15.653Z,69.63
2018-12-24T15:56:43.132Z,69.64
2018-12-24T15:59:10.566Z,69.47
2018-12-24T16:01:38.033Z,69.08
2018-12-24T16:04:05.498Z,69.99
2018-12-24T16:06:32.939Z,69.75
2018-12-24T16:09:00.368Z,70.00
2018-12-24T16:11:27.810Z,69.31
2018-12-24T16:13:55.264Z,69.15
2018-12-24T16:16:22.711Z,68.97
2018-12-24T16:18:50.181Z,68.96
2018-12-24T16:21:17.645Z,69.54
2018-12-24T16:23:45.097Z,69.96
2018-12-24T16:26:12.560Z,69.63
2018-12-24T16:28:40.020Z,70.21
2018-12-24T16:31:07.478Z,69.28
2018-12-24T16:33:34.897Z,69.52
2018-12-24T16:36:02.411Z,69.11
2018-12-24T16:38:29.853Z,68.94
2018-12-24T16:40:57.329Z,69.16
2018-12-24T16:43:24.765Z,69.23
2018-12-24T16:45:52.242Z,69.14
2018-12-24T16:48:19.691Z,69.64
2018-12-24T16:50:47.153Z,70.10
2018-12-24T16:53:14.571Z,70.11
2018-12-24T16:55:41.999Z,70.02
2018-12-24T16:58:09.461Z,69.44
2018-12-24T17:00:36.892Z,69.42
2018-12-24T17:03:04.330Z,70.42
2018-12-24T17:05:31.777Z,71.11
2018-12-24T17:08:00.135Z,70.83
2018-12-24T17:10:27.589Z,70.54
2018-12-24T17:12:55.033Z,71.30
2018-12-24T17:15:22.498Z,71.67
2018-12-24T17:17:49.937Z,71.87
2018-12-24T17:20:17.370Z,72.42
2018-12-24T17:22:44.840Z,72.56
2018-12-24T17:25:12.289Z,72.08
2018-12-24T17:27:39.723Z,72.69
2018-12-24T17:30:08.635Z,71.72
2018-12-24T17:32:36.251Z,72.53
2018-12-24T17:35:03.725Z,72.44
2018-12-24T17:37:31.177Z,72.72
2018-12-24T17:39:58.648Z,71.83
2018-12-24T17:42:27.510Z,71.90
2018-12-24T17:44:54.945Z,72.22
2018-12-24T17:47:22.382Z,72.35
2018-12-24T17:49:49.834Z,73.10
2018-12-24T17:52:17.323Z,73.20
2018-12-24T17:54:44.804Z,74.59
2018-12-24T17:57:12.231Z,73.77
2018-12-24T17:59:39.676Z,76.45
2018-12-24T18:02:07.143Z,77.16
2018-12-24T18:04:35.354Z,77.46
2018-12-24T18:07:02.813Z,77.31
2018-12-24T18:09:30.242Z,76.60
2018-12-24T18:11:57.702Z,75.54
2018-12-24T18:14:25.149Z,74.86
2018-12-24T18:16:52.624Z,77.88
2018-12-24T18:19:20.062Z,76.63
2018-12-24T18:21:47.500Z,75.58
2018-12-24T18:24:15.165Z,75.23
2018-12-24T18:26:42.622Z,75.89
2018-12-24T18:29:10.072Z,75.57
2018-12-24T18:31:37.527Z,75.35
2018-12-24T18:34:04.994Z,75.53
2018-12-24T18:36:32.408Z,75.64
2018-12-24T18:38:59.839Z,75.36
2018-12-24T18:41:27.324Z,76.51
2018-12-24T18:43:54.775Z,77.72
2018-12-24T18:46:22.206Z,76.78
2018-12-24T18:48:49.644Z,76.05
2018-12-24T18:51:17.073Z,77.96
2018-12-24T18:53:44.522Z,78.50
2018-12-24T18:56:11.977Z,78.94
2018-12-24T18:58:39.462Z,78.29
2018-12-24T19:01:07.086Z,79.24
2018-12-24T19:03:34.676Z,80.59
2018-12-24T19:06:02.130Z,79.31
2018-12-24T19:08:29.591Z,79.49
2018-12-24T19:10:57.087Z,79.00
2018-12-24T19:13:24.556Z,77.96
2018-12-24T19:15:52.615Z,77.28
2018-12-24T19:18:20.062Z,77.42
2018-12-24T19:20:47.506Z,77.76
2018-12-24T19:23:14.961Z,80.41
2018-12-24T19:25:42.408Z,79.72
2018-12-24T19:28:09.851Z,79.70
2018-12-24T19:30:37.352Z,80.90
2018-12-24T19:33:04.782Z,80.36
2018-12-24T19:35:32.211Z,81.95
2018-12-24T19:38:00.693Z,81.95
2018-12-24T19:40:28.229Z,81.92
2018-12-24T19:42:55.640Z,80.87
2018-12-24T19:45:23.089Z,81.50
2018-12-24T19:47:50.521Z,81.73
2018-12-24T19:50:17.955Z,81.35
2018-12-24T19:52:45.424Z,80.88
2018-12-24T19:55:12.842Z,80.62
2018-12-24T19:57:40.312Z,82.93
2018-12-24T20:00:07.732Z,81.34
2018-12-24T20:02:35.199Z,81.53
2018-12-24T20:05:02.686Z,82.02
2018-12-24T20:07:30.143Z,81.47
2018-12-24T20:09:57.585Z,80.44
2018-12-24T20:12:25.049Z,81.12
2018-12-24T20:14:52.505Z,79.58
2018-12-24T20:17:19.964Z,79.12
2018-12-24T20:19:47.453Z,79.50
2018-12-24T20:22:14.897Z,79.90
2018-12-24T20:24:42.332Z,79.32
2018-12-24T20:27:09.792Z,79.24
2018-12-24T20:29:37.246Z,79.27
2018-12-24T20:32:04.703Z,79.35
2018-12-24T20:34:32.189Z,79.00
2018-12-24T20:36:59.649Z,78.37
2018-12-24T20:39:27.108Z,77.92
2018-12-24T20:41:54.609Z,78.24
2018-12-24T20:44:22.081Z,79.22
2018-12-24T20:46:49.547Z,79.53
2018-12-24T20:49:17.003Z,78.51
2018-12-24T20:51:44.498Z,78.46
2018-12-24T20:54:12.650Z,78.19
2018-12-24T20:56:40.127Z,78.26
2018-12-24T20:59:07.642Z,79.02
2018-12-24T21:01:35.087Z,78.18
2018-12-24T21:04:02.516Z,77.50
2018-12-24T21:06:29.949Z,77.82
2018-12-24T21:08:57.501Z,79.65
2018-12-24T21:11:24.981Z,78.27
2018-12-24T21:13:52.577Z,77.79
2018-12-24T21:16:21.237Z,78.43
2018-12-24T21:18:49.145Z,79.29
2018-12-24T21:21:17.373Z,79.08
2018-12-24T21:23:45.862Z,79.29
2018-12-24T21:26:14.049Z,79.00
2018-12-24T21:28:41.613Z,79.95
2018-12-24T21:31:09.080Z,78.74
2018-12-24T21:33:36.959Z,79.13
2018-12-24T21:36:04.530Z,78.62
2018-12-24T21:38:33.208Z,79.23
2018-12-24T21:41:01.765Z,78.12
2018-12-24T21:43:29.238Z,78.10
2018-12-24T21:45:56.698Z,77.70
2018-12-24T21:48:24.218Z,77.72
2018-12-24T21:50:51.835Z,76.64
2018-12-24T21:53:19.294Z,76.21
2018-12-24T21:55:46.852Z,76.43
2018-12-24T21:58:15.370Z,76.35
2018-12-24T22:00:42.917Z,76.31
2018-12-24T22:03:10.366Z,76.40
2018-12-24T22:05:37.909Z,75.97
2018-12-24T22:08:05.395Z,76.37
2018-12-24T22:10:32.817Z,76.55
2018-12-24T22:13:00.355Z,77.20
2018-12-24T22:15:27.724Z,77.03
2018-12-24T22:17:55.208Z,77.09
2018-12-24T22:20:22.660Z,77.00
2018-12-24T22:22:50.524Z,76.99
2018-12-24T22:25:18.063Z,76.32
2018-12-24T22:27:45.502Z,76.11
2018-12-24T22:30:12.964Z,76.32
2018-12-24T22:32:40.431Z,76.47
2018-12-24T22:35:07.902Z,76.20
2018-12-24T22:37:36.785Z,76.30
2018-12-24T22:40:04.320Z,75.95
2018-12-24T22:42:31.782Z,76.72
2018-12-24T22:44:59.234Z,77.09
2018-12-24T22:47:26.689Z,77.34
2018-12-24T22:49:54.245Z,78.10
2018-12-24T22:52:21.700Z,77.40
2018-12-24T22:54:49.152Z,77.14
2018-12-24T22:57:17.824Z,77.51
2018-12-24T22:59:45.249Z,76.84
2018-12-24T23:02:12.700Z,77.48
2018-12-24T23:04:40.154Z,79.21
2018-12-24T23:07:08.842Z,78.43
2018-12-24T23:09:36.286Z,78.18
2018-12-24T23:12:05.109Z,78.49
2018-12-24T23:14:32.706Z,78.96
2018-12-24T23:17:00.153Z,77.51
2018-12-24T23:19:27.625Z,77.40
2018-12-24T23:21:55.093Z,77.56
2018-12-24T23:24:22.661Z,77.28
2018-12-24T23:26:50.179Z,77.92
2018-12-24T23:29:17.641Z,77.92
2018-12-24T23:31:45.087Z,78.98
2018-12-24T23:34:12.531Z,79.51
2018-12-24T23:36:40.086Z,77.97
2018-12-24T23:39:07.527Z,77.36
2018-12-24T23:41:34.994Z,77.34
2018-12-24T23:44:02.498Z,77.56
2018-12-24T23:46:31.489Z,78.23
2018-12-24T23:48:59.067Z,77.74
2018-12-24T23:51:26.525Z,77.05
2018-12-24T23:53:53.941Z,77.64
2018-12-24T23:56:21.434Z,78.44
2018-12-24T23:58:48.885Z,77.62
